Jijel, Algeria
Current Conditions -  °F | °C
As of 1:00 AM on Thursday 23 Oct 2014 (Local Time) from DAAV Reporting Station
Few Clouds Few Clouds  
Wind Chill: 70°   Ceiling: Unl
Heat Index: 70°   Visibility: 6mi
Dew Point: 50°   Wind: 21mph
Humidity: 49%   Direction: 340°NNW
Pressure: 30.15"   Gusts: NA
Location:  36.82°N, 5.77°E
Report Text: DAAV 230000Z 34018KT 9999 FEW020 21/10 Q1021
Loading
Personal Weather Stations






























Interactive Weather Map
Tropical Storm Tracking
New forecast layout! Learn more

10-Day Weather Forecast

Advertisements
Track Severe Weather on mobile